Terminal Aerodrome Forecast
Issued by NWS Dallas/Fort Worth, TX

Home | Current Version | Previous Version | Text Only | Print | Product List | Glossary On
Versions: 1 2 3 4 5 6 7 8 9 10 11 12 13 14 15 16 17 18 19 20 21 22 23 24 25 26 27 28 29
176
FTUS44 KFWD 212050 AAA
TAFACT
TAF AMD
KACT 212050Z 2121/2218 18015KT P6SM BKN050
     FM220600 20013KT P6SM BKN025
     FM220800 24011KT 5SM TSRA BKN025CB OVC040
      TEMPO 2208/2210 31020G30KT 2SM TSRA BKN015CB
     FM221100 34016KT P6SM SCT020=

USA.gov is the U.S. government's official web portal to all federal, state and local government web resources and services.